This is the latest recevied weather packets stored in our database for station/object ED5YAW-10. If no packets are shown the sender has not sent any weather packets the latest 10 day(s).
| Time | Temp. | Humidity | Pressure | Rain* | Wind** | Luminosity | Snow |
|---|---|---|---|---|---|---|---|
| 1777825867 | 22.78° C | 54% | 874 hPa | - | - | - | - |
| 1777825385 | 21.67° C | 59% | 874 hPa | - | - | - | - |
| 1777825274 | 21.67° C | 59% | 874 hPa | - | - | - | - |
| 1777825262 | 21.67° C | 59% | 874 hPa | - | - | - | - |
| 1777825100 | 21.67° C | 60% | 874 hPa | - | - | - | - |
| 1777824662 | 21.67° C | 60% | 874 hPa | - | - | - | - |
| 1777824658 | 21.67° C | 60% | 874 hPa | - | - | - | - |
| 1777824058 | 21.67° C | 61% | 874 hPa | - | - | - | - |
| 1777824054 | 21.67° C | 61% | 874 hPa | - | - | - | - |
| 1777823454 | 21.67° C | 58% | 874 hPa | - | - | - | - |
| 1777823450 | 21.67° C | 58% | 874 hPa | - | - | - | - |
| 1777822849 | 21.11° C | 58% | 874 hPa | - | - | - | - |
| 1777822845 | 21.11° C | 58% | 874 hPa | - | - | - | - |
| 1777822241 | 21.67° C | 50% | 874 hPa | - | - | - | - |
| 1777821641 | 22.22° C | 51% | 874 hPa | - | - | - | - |
| 1777821637 | 22.22° C | 51% | 874 hPa | - | - | - | - |
| 1777821159 | 22.78° C | 56% | 874 hPa | - | - | - | - |
| 1777821037 | 22.78° C | 56% | 874 hPa | - | - | - | - |
| 1777821033 | 22.78° C | 56% | 874 hPa | - | - | - | - |
| 1777820432 | 21.67° C | 60% | 874 hPa | - | - | - | - |
| 1777820428 | 21.67° C | 60% | 874 hPa | - | - | - | - |
| 1777819828 | 20.56° C | 64% | 874 hPa | - | - | - | - |
| 1777819824 | 20.56° C | 64% | 874 hPa | - | - | - | - |
| 1777819223 | 21.11° C | 61% | 874 hPa | - | - | - | - |
| 1777819219 | 21.11° C | 61% | 874 hPa | - | - | - | - |
* Rain since midnight (hover to see other rain measurements)
** Current wind speed in m/s (hover to see current wind gust speed)